Time;durP1;ratioP1;P1;durP2;ratioP2;P2;SDS_P1;SDS_P2;PMS_P1;PMS_P2;Temp;Humidity;BMP_temperature;BMP_pressure;BME280_temperature;BME280_humidity;BME280_pressure;Samples;Min_cycle;Max_cycle;Signal;HPM_P1;HPM_P2
2022/01/26 00:07:54;;;;;;;;;;;4.50;99.90;;;;;;5090324;28;19925;-85
2022/01/26 00:10:21;;;;;;;;;;;4.50;99.90;;;;;;5032005;28;19926;-83
2022/01/26 00:12:48;;;;;;;;;;;4.50;99.90;;;;;;4782583;29;19939;-87
2022/01/26 00:15:15;;;;;;;;;;;4.50;99.90;;;;;;4524603;30;19944;-84
2022/01/26 00:23:05;;;;;;;;;;;4.40;99.90;;;;;;5154678;27;19926;-83
2022/01/26 00:25:46;;;;;;;;;;;4.50;99.90;;;;;;5072819;28;19924;-83
2022/01/26 00:28:33;;;;;;;;;;;4.50;99.90;;;;;;5043253;28;19924;-84
2022/01/26 00:31:59;;;;;;;;;;;4.40;99.90;;;;;;4998592;28;19926;-79
2022/01/26 00:43:07;;;;;;;;;;;4.50;99.90;;;;;;5206798;27;19929;-81
2022/01/26 00:45:36;;;;;;;;;;;4.50;99.90;;;;;;5134294;27;19923;-82
2022/01/26 00:48:05;;;;;;;;;;;4.60;99.90;;;;;;5133381;27;19924;-83
2022/01/26 00:50:32;;;;;;;;;;;4.60;99.90;;;;;;5051788;28;19925;-81
2022/01/26 00:52:59;;;;;;;;;;;4.60;99.90;;;;;;4953634;28;19928;-82
2022/01/26 00:55:28;;;;;;;;;;;4.50;99.90;;;;;;4883051;29;19937;-84
2022/01/26 00:57:54;;;;;;;;;;;4.50;99.90;;;;;;4612753;29;19968;-81
2022/01/26 01:05:32;;;;;;;;;;;4.60;99.90;;;;;;5174684;27;19926;-83
2022/01/26 01:08:04;;;;;;;;;;;4.50;99.90;;;;;;5122901;27;19930;-84
2022/01/26 01:10:31;;;;;;;;;;;4.60;99.90;;;;;;5106694;28;19930;-80
2022/01/26 01:12:59;;;;;;;;;;;4.50;99.90;;;;;;5047802;28;19909;-78
2022/01/26 01:15:27;;;;;;;;;;;4.50;99.90;;;;;;4939291;28;19918;-80
2022/01/26 01:18:04;;;;;;;;;;;4.50;99.90;;;;;;4746126;29;19933;-82
2022/01/26 01:24:14;;;;;;;;;;;4.50;99.90;;;;;;5177066;27;20258;-84
2022/01/26 01:26:56;;;;;;;;;;;4.40;99.90;;;;;;5105759;27;19931;-82
2022/01/26 01:29:31;;;;;;;;;;;4.40;99.90;;;;;;5116756;28;19931;-81
2022/01/26 01:32:00;;;;;;;;;;;4.40;99.90;;;;;;5002409;28;19927;-80
2022/01/26 01:34:36;;;;;;;;;;;4.40;99.90;;;;;;4866110;28;19936;-81
2022/01/26 01:37:06;;;;;;;;;;;4.40;99.90;;;;;;4552232;30;19936;-85
2022/01/26 01:39:35;;;;;;;;;;;4.30;99.90;;;;;;4336954;32;22740;-82
2022/01/26 01:47:11;;;;;;;;;;;4.30;99.90;;;;;;5188682;27;19921;-86
2022/01/26 01:49:38;;;;;;;;;;;4.30;99.90;;;;;;5112889;27;19924;-84
2022/01/26 01:52:12;;;;;;;;;;;4.20;99.90;;;;;;5133656;27;19924;-84
2022/01/26 01:54:41;;;;;;;;;;;4.20;99.90;;;;;;5053418;28;19932;-82
2022/01/26 01:57:08;;;;;;;;;;;4.30;99.90;;;;;;4955712;28;19929;-84
2022/01/26 01:59:34;;;;;;;;;;;4.30;99.90;;;;;;4665666;29;19942;-81
2022/01/26 02:02:01;;;;;;;;;;;4.20;99.90;;;;;;4308130;31;19942;-84
2022/01/26 02:07:07;;;;;;;;;;;4.20;99.90;;;;;;5183782;27;19926;-79
2022/01/26 02:09:34;;;;;;;;;;;4.20;99.90;;;;;;5137528;27;19927;-79
2022/01/26 02:12:11;;;;;;;;;;;4.20;99.90;;;;;;5107511;28;19923;-79
2022/01/26 02:14:42;;;;;;;;;;;4.20;99.90;;;;;;5024564;28;19925;-83
2022/01/26 02:17:19;;;;;;;;;;;4.20;99.90;;;;;;4877616;29;19929;-84
2022/01/26 02:20:08;;;;;;;;;;;4.10;99.90;;;;;;4731796;29;19945;-84
2022/01/26 02:53:43;;;;;;;;;;;4.10;99.90;;;;;;5063320;28;19932;-82
2022/01/26 02:56:17;;;;;;;;;;;4.20;99.90;;;;;;5051052;28;19932;-84
2022/01/26 02:58:58;;;;;;;;;;;4.20;99.90;;;;;;4864236;28;19952;-81
2022/01/26 03:01:46;;;;;;;;;;;4.20;99.90;;;;;;4569000;30;19937;-82
2022/01/26 03:04:22;;;;;;;;;;;4.20;99.90;;;;;;4185852;33;19952;-81
2022/01/26 03:11:02;;;;;;;;;;;4.20;99.90;;;;;;5174423;27;19927;-84
2022/01/26 03:13:32;;;;;;;;;;;4.10;99.90;;;;;;5097765;28;19923;-83
2022/01/26 03:16:04;;;;;;;;;;;4.20;99.90;;;;;;5073572;28;19932;-81
2022/01/26 03:18:51;;;;;;;;;;;4.10;99.90;;;;;;4995518;28;19926;-83
2022/01/26 03:21:22;;;;;;;;;;;4.10;99.90;;;;;;4956564;28;19927;-82
2022/01/26 03:29:41;;;;;;;;;;;4.00;99.90;;;;;;5189585;27;19930;-82
2022/01/26 03:32:47;;;;;;;;;;;4.10;99.90;;;;;;5154423;27;19923;-80
2022/01/26 03:35:16;;;;;;;;;;;4.10;99.90;;;;;;5093111;28;19924;-80
2022/01/26 03:37:51;;;;;;;;;;;4.10;99.90;;;;;;5064284;28;19925;-80
2022/01/26 03:40:18;;;;;;;;;;;4.10;99.90;;;;;;4964484;28;19934;-82
2022/01/26 03:42:45;;;;;;;;;;;4.10;99.90;;;;;;4809798;29;19931;-83
2022/01/26 03:45:12;;;;;;;;;;;4.10;99.90;;;;;;4604528;30;19942;-82
2022/01/26 03:52:10;;;;;;;;;;;4.10;99.90;;;;;;5162462;27;19927;-83
2022/01/26 03:54:37;;;;;;;;;;;4.00;99.90;;;;;;5100113;27;19924;-82
2022/01/26 03:57:03;;;;;;;;;;;4.00;99.90;;;;;;5098644;28;19927;-80
2022/01/26 03:59:30;;;;;;;;;;;4.00;99.90;;;;;;5081508;28;19924;-86
2022/01/26 04:01:57;;;;;;;;;;;4.00;99.90;;;;;;4977832;28;19926;-85
2022/01/26 04:04:24;;;;;;;;;;;4.00;99.90;;;;;;4832673;29;20039;-86
2022/01/26 04:06:51;;;;;;;;;;;4.00;99.90;;;;;;4634924;29;19936;-84
2022/01/26 04:14:26;;;;;;;;;;;4.00;99.90;;;;;;5174171;27;19925;-89
2022/01/26 04:16:53;;;;;;;;;;;4.00;99.90;;;;;;5107352;28;19930;-85
2022/01/26 04:19:21;;;;;;;;;;;4.00;99.90;;;;;;5108990;28;19924;-83
2022/01/26 04:22:04;;;;;;;;;;;4.00;99.90;;;;;;5074458;28;19924;-83
2022/01/26 04:24:36;;;;;;;;;;;4.00;99.90;;;;;;4993757;28;19931;-84
2022/01/26 04:27:07;;;;;;;;;;;4.00;99.90;;;;;;4911660;29;19928;-84
2022/01/26 04:29:35;;;;;;;;;;;4.00;99.90;;;;;;4623818;29;19934;-79
2022/01/26 04:36:09;;;;;;;;;;;4.10;99.90;;;;;;5174945;27;19930;-85
2022/01/26 04:38:40;;;;;;;;;;;4.00;99.90;;;;;;5116682;27;19930;-83
2022/01/26 04:41:27;;;;;;;;;;;4.00;99.90;;;;;;5107199;28;19935;-81
2022/01/26 04:43:58;;;;;;;;;;;4.00;99.90;;;;;;5017739;28;19937;-80
2022/01/26 04:46:26;;;;;;;;;;;3.90;99.90;;;;;;4915497;28;19929;-84
2022/01/26 04:48:53;;;;;;;;;;;3.80;99.90;;;;;;4768829;29;19931;-82
2022/01/26 04:51:20;;;;;;;;;;;3.80;99.90;;;;;;4544598;30;19936;-82
2022/01/26 04:56:26;;;;;;;;;;;3.80;99.90;;;;;;5183738;27;19929;-79
2022/01/26 04:58:52;;;;;;;;;;;3.80;99.90;;;;;;5150234;27;19923;-78
2022/01/26 05:01:19;;;;;;;;;;;3.80;99.90;;;;;;5123892;28;19932;-81
2022/01/26 05:03:46;;;;;;;;;;;3.80;99.90;;;;;;5085817;28;19931;-85
2022/01/26 05:06:12;;;;;;;;;;;3.80;99.90;;;;;;5010758;28;19938;-84
2022/01/26 05:08:39;;;;;;;;;;;3.80;99.90;;;;;;4824981;29;19931;-81
2022/01/26 05:11:08;;;;;;;;;;;3.80;99.90;;;;;;4518554;30;19937;-86
2022/01/26 05:18:41;;;;;;;;;;;3.70;99.90;;;;;;5159452;27;19925;-82
2022/01/26 05:21:08;;;;;;;;;;;3.70;99.90;;;;;;5116385;27;19924;-82
2022/01/26 05:23:35;;;;;;;;;;;3.70;99.90;;;;;;5073056;28;19932;-86
2022/01/26 05:26:01;;;;;;;;;;;3.80;99.90;;;;;;5040166;28;19933;-85
2022/01/26 05:28:28;;;;;;;;;;;3.80;99.90;;;;;;5012263;28;19927;-82
2022/01/26 05:30:54;;;;;;;;;;;3.70;99.90;;;;;;4806943;29;19937;-83
2022/01/26 05:33:23;;;;;;;;;;;3.70;99.90;;;;;;4664321;30;19933;-79
2022/01/26 05:41:00;;;;;;;;;;;3.60;99.90;;;;;;5184430;27;19914;-82
2022/01/26 05:43:28;;;;;;;;;;;3.60;99.90;;;;;;5112256;28;19934;-80
2022/01/26 05:45:58;;;;;;;;;;;3.60;99.90;;;;;;5114566;27;19914;-83
2022/01/26 05:48:25;;;;;;;;;;;3.60;99.90;;;;;;5090514;28;19917;-82
2022/01/26 05:50:53;;;;;;;;;;;3.50;99.90;;;;;;4988983;28;19927;-82
2022/01/26 05:53:21;;;;;;;;;;;3.50;99.90;;;;;;4802585;29;19931;-83
2022/01/26 05:55:48;;;;;;;;;;;3.50;99.90;;;;;;4561251;30;19936;-83
2022/01/26 06:03:20;;;;;;;;;;;3.40;99.90;;;;;;5173748;27;19926;-83
2022/01/26 06:05:47;;;;;;;;;;;3.50;99.90;;;;;;5137088;27;19923;-84
2022/01/26 06:08:13;;;;;;;;;;;3.40;99.90;;;;;;5117448;27;19939;-85
2022/01/26 06:10:40;;;;;;;;;;;3.40;99.90;;;;;;5094689;28;19924;-82
2022/01/26 06:13:07;;;;;;;;;;;3.50;99.90;;;;;;5014506;28;19926;-80
2022/01/26 06:15:33;;;;;;;;;;;3.50;99.90;;;;;;4840694;29;19931;-83
2022/01/26 06:18:00;;;;;;;;;;;3.40;99.90;;;;;;4566152;30;19943;-83
2022/01/26 06:25:33;;;;;;;;;;;3.40;99.90;;;;;;5173999;27;19926;-81
2022/01/26 06:28:05;;;;;;;;;;;3.40;99.90;;;;;;5117616;27;19923;-80
2022/01/26 06:30:32;;;;;;;;;;;3.30;99.90;;;;;;5092393;28;19924;-81
2022/01/26 06:32:58;;;;;;;;;;;3.30;99.90;;;;;;5051065;28;19925;-81
2022/01/26 06:35:26;;;;;;;;;;;3.20;99.90;;;;;;4978883;28;19926;-81
2022/01/26 06:37:53;;;;;;;;;;;3.20;99.90;;;;;;4873870;28;19934;-81
2022/01/26 06:40:20;;;;;;;;;;;3.20;99.90;;;;;;4597899;30;19946;-83
2022/01/26 06:47:47;;;;;;;;;;;3.20;99.90;;;;;;5163182;27;19929;-83
2022/01/26 06:50:14;;;;;;;;;;;3.20;99.90;;;;;;5093600;28;19924;-83
2022/01/26 06:52:43;;;;;;;;;;;3.20;99.90;;;;;;5060137;28;19925;-84
2022/01/26 06:55:12;;;;;;;;;;;3.20;99.90;;;;;;5036997;28;19927;-80
2022/01/26 06:57:38;;;;;;;;;;;3.20;99.90;;;;;;4956748;28;19934;-80
2022/01/26 07:00:06;;;;;;;;;;;3.10;99.90;;;;;;4824192;29;19947;-82
2022/01/26 07:02:33;;;;;;;;;;;3.10;99.90;;;;;;4450342;30;19945;-80
2022/01/26 07:07:40;;;;;;;;;;;3.20;99.90;;;;;;5173766;27;19942;-80
2022/01/26 07:10:08;;;;;;;;;;;3.20;99.90;;;;;;5135115;27;19931;-82
2022/01/26 07:12:34;;;;;;;;;;;3.10;99.90;;;;;;5119581;27;19931;-83
2022/01/26 07:21:22;;;;;;;;;;;3.10;99.90;;;;;;4749028;29;19944;-81
2022/01/26 07:27:07;;;;;;;;;;;3.20;99.90;;;;;;5173838;27;19925;-83
2022/01/26 07:29:34;;;;;;;;;;;3.20;99.90;;;;;;5139396;27;19945;-83
2022/01/26 07:32:04;;;;;;;;;;;3.20;99.90;;;;;;5121105;28;19931;-82
2022/01/26 07:34:30;;;;;;;;;;;3.10;99.90;;;;;;5118598;28;19931;-80
2022/01/26 07:37:02;;;;;;;;;;;3.10;99.90;;;;;;5029758;28;19925;-80
2022/01/26 07:39:40;;;;;;;;;;;3.10;99.90;;;;;;4926228;28;19928;-80
2022/01/26 07:42:08;;;;;;;;;;;3.10;99.90;;;;;;4589045;30;19935;-80
2022/01/26 07:49:35;;;;;;;;;;;3.10;99.90;;;;;;5186302;27;19941;-83
2022/01/26 07:52:01;;;;;;;;;;;3.10;99.90;;;;;;5143092;27;19923;-81
2022/01/26 07:54:28;;;;;;;;;;;3.10;99.90;;;;;;5111838;28;19931;-84
2022/01/26 07:56:55;;;;;;;;;;;3.10;99.90;;;;;;5095350;28;19931;-82
2022/01/26 07:59:22;;;;;;;;;;;3.10;99.90;;;;;;5059614;28;19925;-78
2022/01/26 08:01:48;;;;;;;;;;;3.20;99.90;;;;;;4890351;29;19936;-78
2022/01/26 08:04:15;;;;;;;;;;;3.20;99.90;;;;;;4707217;29;19933;-79
2022/01/26 08:11:47;;;;;;;;;;;3.10;99.90;;;;;;5168695;27;19929;-83
2022/01/26 08:14:14;;;;;;;;;;;3.10;99.90;;;;;;5117380;27;19924;-80
2022/01/26 08:16:41;;;;;;;;;;;3.20;99.90;;;;;;5103515;28;19939;-80
2022/01/26 08:19:08;;;;;;;;;;;3.20;99.90;;;;;;5076904;28;19924;-80
2022/01/26 08:21:34;;;;;;;;;;;3.30;99.90;;;;;;4988116;28;19927;-80
2022/01/26 08:24:03;;;;;;;;;;;3.20;99.90;;;;;;4863244;29;19929;-80
2022/01/26 08:26:39;;;;;;;;;;;3.20;99.90;;;;;;4629143;29;19934;-79
2022/01/26 08:34:07;;;;;;;;;;;3.20;99.90;;;;;;5174169;27;19926;-83
2022/01/26 08:36:34;;;;;;;;;;;3.10;99.90;;;;;;5120624;27;19923;-81
2022/01/26 08:39:00;;;;;;;;;;;3.10;99.90;;;;;;5120691;28;19936;-80
2022/01/26 08:41:27;;;;;;;;;;;3.10;99.90;;;;;;5050162;28;19925;-83
2022/01/26 08:43:55;;;;;;;;;;;3.20;99.90;;;;;;4940670;28;19934;-81
2022/01/26 08:46:21;;;;;;;;;;;3.10;99.90;;;;;;4802047;29;19931;-79
2022/01/26 08:48:48;;;;;;;;;;;3.10;99.90;;;;;;4561883;30;19959;-82
2022/01/26 08:56:19;;;;;;;;;;;3.10;99.90;;;;;;5174712;27;19925;-83
2022/01/26 08:58:46;;;;;;;;;;;3.20;99.90;;;;;;5133876;27;19930;-81
2022/01/26 09:01:13;;;;;;;;;;;3.10;99.90;;;;;;5116284;27;19931;-80
2022/01/26 09:03:39;;;;;;;;;;;3.20;99.90;;;;;;5112282;28;19946;-79
2022/01/26 09:06:06;;;;;;;;;;;3.20;99.90;;;;;;5029515;28;19926;-82
2022/01/26 09:08:33;;;;;;;;;;;3.20;99.90;;;;;;4857178;29;19929;-80
2022/01/26 09:11:01;;;;;;;;;;;3.20;99.90;;;;;;4643826;30;19945;-78
2022/01/26 09:17:51;;;;;;;;;;;3.30;99.90;;;;;;5181971;27;19992;-84
2022/01/26 09:20:18;;;;;;;;;;;3.40;99.90;;;;;;5139102;27;19931;-83
2022/01/26 09:22:44;;;;;;;;;;;3.30;99.90;;;;;;5099296;28;19924;-81
2022/01/26 09:25:11;;;;;;;;;;;3.30;99.90;;;;;;5016044;28;19925;-85
2022/01/26 09:27:38;;;;;;;;;;;3.30;99.90;;;;;;5003411;28;19926;-81
2022/01/26 09:30:05;;;;;;;;;;;3.30;99.90;;;;;;4778774;29;19931;-82
2022/01/26 09:32:32;;;;;;;;;;;3.40;99.90;;;;;;4668154;29;19933;-84
2022/01/26 09:40:04;;;;;;;;;;;3.40;99.90;;;;;;5179959;27;19926;-81
2022/01/26 09:42:32;;;;;;;;;;;3.40;99.90;;;;;;5130468;27;19936;-80
2022/01/26 09:45:00;;;;;;;;;;;3.40;99.90;;;;;;5106778;28;19931;-82
2022/01/26 09:47:27;;;;;;;;;;;3.40;99.90;;;;;;5077894;28;19943;-78
2022/01/26 09:49:53;;;;;;;;;;;3.40;99.90;;;;;;5016954;28;19925;-84
2022/01/26 09:52:25;;;;;;;;;;;3.40;99.90;;;;;;4922640;28;19929;-83
2022/01/26 09:54:52;;;;;;;;;;;3.40;99.90;;;;;;4757166;29;19932;-82
2022/01/26 10:02:26;;;;;;;;;;;3.40;99.90;;;;;;5158319;27;19926;-83
2022/01/26 10:04:58;;;;;;;;;;;3.40;99.90;;;;;;5114799;27;19924;-84
2022/01/26 10:07:29;;;;;;;;;;;3.40;99.90;;;;;;5082732;28;19928;-81
2022/01/26 10:10:30;;;;;;;;;;;3.40;99.90;;;;;;5046017;28;19935;-81
2022/01/26 10:15:56;;;;;;;;;;;3.30;99.90;;;;;;4755717;29;19923;-79
2022/01/26 10:18:23;;;;;;;;;;;3.30;99.90;;;;;;4397455;31;19938;-79
2022/01/26 10:26:01;;;;;;;;;;;3.40;99.90;;;;;;5175205;27;19927;-82
2022/01/26 10:28:28;;;;;;;;;;;3.50;99.90;;;;;;5129256;27;19924;-81
2022/01/26 10:30:54;;;;;;;;;;;3.50;99.90;;;;;;5049324;28;19929;-83
2022/01/26 10:33:21;;;;;;;;;;;3.60;99.90;;;;;;5026274;28;19926;-79
2022/01/26 10:35:48;;;;;;;;;;;3.50;99.90;;;;;;4986889;28;19927;-79
2022/01/26 10:41:40;;;;;;;;;;;3.70;99.90;;;;;;4669429;30;19940;-81
2022/01/26 10:45:06;;;;;;;;;;;3.80;99.90;;;;;;4394666;31;19939;-82
2022/01/26 10:52:42;;;;;;;;;;;4.30;99.90;;;;;;5163403;27;19926;-80
2022/01/26 10:55:09;;;;;;;;;;;4.30;99.90;;;;;;5124174;27;19943;-82
2022/01/26 10:57:36;;;;;;;;;;;4.20;99.90;;;;;;5119488;28;19923;-79
2022/01/26 11:00:04;;;;;;;;;;;4.10;99.90;;;;;;5084181;28;19925;-82
2022/01/26 11:02:33;;;;;;;;;;;4.00;99.90;;;;;;4999339;28;19938;-81
2022/01/26 11:05:00;;;;;;;;;;;4.00;99.90;;;;;;4801204;29;19931;-80
2022/01/26 11:07:29;;;;;;;;;;;3.90;99.90;;;;;;4516058;30;19937;-83
2022/01/26 11:14:58;;;;;;;;;;;4.00;99.90;;;;;;5175076;27;19926;-82
2022/01/26 11:17:27;;;;;;;;;;;4.00;99.90;;;;;;5122357;28;19924;-80
2022/01/26 11:19:55;;;;;;;;;;;4.00;99.90;;;;;;5092881;28;19924;-81
2022/01/26 11:22:27;;;;;;;;;;;4.00;99.90;;;;;;5060496;28;19924;-80
2022/01/26 11:24:55;;;;;;;;;;;4.00;99.90;;;;;;4993190;28;19928;-83
2022/01/26 11:27:32;;;;;;;;;;;4.10;99.90;;;;;;4764242;29;19931;-82
2022/01/26 11:30:01;;;;;;;;;;;4.10;99.90;;;;;;4518232;30;19936;-82
2022/01/26 11:37:39;;;;;;;;;;;4.00;99.90;;;;;;5175068;27;19925;-84
2022/01/26 11:45:35;;;;;;;;;;;3.60;99.90;;;;;;5049537;28;19932;-80
2022/01/26 11:48:05;;;;;;;;;;;3.60;99.90;;;;;;4945568;28;19927;-80
2022/01/26 11:50:32;;;;;;;;;;;3.50;99.90;;;;;;4792095;29;19930;-81
2022/01/26 11:53:00;;;;;;;;;;;3.50;99.90;;;;;;4597895;30;19942;-81
2022/01/26 12:00:41;;;;;;;;;;;3.50;99.90;;;;;;5187293;27;19926;-79
2022/01/26 12:03:18;;;;;;;;;;;3.50;99.90;;;;;;5121508;28;19931;-82
2022/01/26 12:05:46;;;;;;;;;;;3.50;99.90;;;;;;5087399;28;19925;-82
2022/01/26 12:08:14;;;;;;;;;;;3.40;99.90;;;;;;4985916;28;19933;-82
2022/01/26 12:10:43;;;;;;;;;;;3.40;99.90;;;;;;4849784;29;19957;-83
2022/01/26 12:13:12;;;;;;;;;;;3.30;99.90;;;;;;4645816;30;19934;-83
2022/01/26 12:15:45;;;;;;;;;;;3.30;99.90;;;;;;4430096;31;19938;-82
2022/01/26 12:32:11;;;;;;;;;;;3.20;99.90;;;;;;4971655;28;19927;-81
2022/01/26 12:34:44;;;;;;;;;;;3.30;99.90;;;;;;4755530;29;19951;-80
2022/01/26 12:37:17;;;;;;;;;;;3.30;99.90;;;;;;4505307;31;19948;-81
2022/01/26 12:43:00;;;;;;;;;;;3.30;99.90;;;;;;5155037;27;19926;-81
2022/01/26 12:45:28;;;;;;;;;;;3.20;99.90;;;;;;5115924;27;19931;-84
2022/01/26 12:47:56;;;;;;;;;;;3.10;99.90;;;;;;5116116;27;19924;-82
2022/01/26 12:50:23;;;;;;;;;;;3.10;99.90;;;;;;5065923;28;19925;-81
2022/01/26 12:52:51;;;;;;;;;;;3.10;99.90;;;;;;4982656;28;19928;-80
2022/01/26 12:55:21;;;;;;;;;;;3.10;99.90;;;;;;4826170;29;19930;-82
2022/01/26 12:57:48;;;;;;;;;;;3.20;99.90;;;;;;4574785;30;19935;-85
2022/01/26 13:05:24;;;;;;;;;;;3.20;99.90;;;;;;5180950;27;19925;-82
2022/01/26 13:07:59;;;;;;;;;;;3.20;99.90;;;;;;5117257;27;19923;-84
2022/01/26 13:10:25;;;;;;;;;;;3.00;99.90;;;;;;5086821;28;19931;-85
2022/01/26 13:12:52;;;;;;;;;;;2.90;99.90;;;;;;5027962;28;19933;-81
2022/01/26 13:15:22;;;;;;;;;;;2.90;99.90;;;;;;4924678;28;19936;-80
2022/01/26 13:17:53;;;;;;;;;;;2.80;99.90;;;;;;4749346;29;19939;-81
2022/01/26 13:20:31;;;;;;;;;;;2.70;99.90;;;;;;4449481;31;19951;-80
2022/01/26 13:27:52;;;;;;;;;;;2.70;99.90;;;;;;5185178;27;19925;-80
2022/01/26 13:30:32;;;;;;;;;;;2.70;99.90;;;;;;5109507;27;19924;-85
2022/01/26 13:33:16;;;;;;;;;;;2.70;99.90;;;;;;5082309;28;19939;-85
2022/01/26 13:35:51;;;;;;;;;;;2.60;99.90;;;;;;5025327;28;19926;-83
2022/01/26 13:38:30;;;;;;;;;;;2.60;99.90;;;;;;4935271;28;19938;-81
2022/01/26 13:41:05;;;;;;;;;;;2.60;99.90;;;;;;4712732;29;19933;-82
2022/01/26 13:52:00;;;;;;;;;;;2.60;99.90;;;;;;5136627;27;19923;-81
2022/01/26 13:57:37;;;;;;;;;;;2.60;99.90;;;;;;5038313;28;19925;-82
2022/01/26 14:00:01;;;;;;;;;;;2.60;99.90;;;;;;4897767;28;19929;-81
2022/01/26 14:02:31;;;;;;;;;;;2.50;99.90;;;;;;4752315;29;19938;-82
2022/01/26 14:04:58;;;;;;;;;;;2.50;99.90;;;;;;4474061;30;20513;-82
2022/01/26 14:12:30;;;;;;;;;;;2.50;99.90;;;;;;5161383;27;19926;-86
2022/01/26 14:14:59;;;;;;;;;;;2.50;99.90;;;;;;5096914;28;19931;-81
2022/01/26 14:17:37;;;;;;;;;;;2.50;99.90;;;;;;5017402;28;19925;-81
2022/01/26 14:20:12;;;;;;;;;;;2.60;99.90;;;;;;5011206;28;19926;-82
2022/01/26 14:22:59;;;;;;;;;;;2.50;99.90;;;;;;4944588;28;19928;-83
2022/01/26 14:25:28;;;;;;;;;;;2.50;99.90;;;;;;4757228;29;19932;-81
2022/01/26 14:28:00;;;;;;;;;;;2.50;99.90;;;;;;4513820;30;19944;-82
2022/01/26 14:35:44;;;;;;;;;;;2.40;99.90;;;;;;5175923;27;19925;-80
2022/01/26 14:50:54;;;;;;;;;;;2.40;99.90;;;;;;5047331;28;19925;-81
2022/01/26 15:00:11;;;;;;;;;;;2.40;99.90;;;;;;5109685;27;19923;-88
2022/01/26 15:30:25;;;;;;;;;;;2.20;99.90;;;;;;4898697;29;19932;-81
2022/01/26 15:40:02;;;;;;;;;;;2.10;99.90;;;;;;4312435;32;19961;-83
2022/01/26 15:41:52;;;;;;;;;;;2.10;99.90;;;;;;5168186;27;19927;-84
2022/01/26 15:44:25;;;;;;;;;;;2.20;99.90;;;;;;5084821;28;19935;-80
2022/01/26 15:49:50;;;;;;;;;;;2.20;99.90;;;;;;5097163;28;19924;-81
2022/01/26 16:06:00;;;;;;;;;;;2.20;99.90;;;;;;5135366;27;19923;-83
2022/01/26 16:08:33;;;;;;;;;;;2.10;99.90;;;;;;5117106;27;19924;-82
2022/01/26 16:16:36;;;;;;;;;;;2.10;99.90;;;;;;4771700;29;19931;-88
2022/01/26 17:11:54;;;;;;;;;;;2.10;99.90;;;;;;5033503;28;19925;-82
2022/01/26 18:15:24;;;;;;;;;;;2.30;99.90;;;;;;5057183;28;19925;-86
2022/01/26 18:17:58;;;;;;;;;;;2.30;99.90;;;;;;4868824;28;20301;-84
2022/01/26 18:32:56;;;;;;;;;;;2.40;99.90;;;;;;5102881;27;19932;-82
2022/01/26 18:52:59;;;;;;;;;;;2.40;99.90;;;;;;5154446;27;19927;-81
2022/01/26 18:55:25;;;;;;;;;;;2.40;99.90;;;;;;5118958;27;19923;-83
2022/01/26 18:57:52;;;;;;;;;;;2.40;99.90;;;;;;5107744;28;19932;-87
2022/01/26 19:00:19;;;;;;;;;;;2.50;99.90;;;;;;5067907;28;19926;-80
2022/01/26 19:02:45;;;;;;;;;;;2.40;99.90;;;;;;4984697;28;19918;-86
2022/01/26 19:05:13;;;;;;;;;;;2.40;99.90;;;;;;4843994;29;19930;-81
2022/01/26 19:07:39;;;;;;;;;;;2.40;99.90;;;;;;4667137;30;19937;-81
2022/01/26 19:12:51;;;;;;;;;;;2.50;99.90;;;;;;5164158;27;19925;-88
2022/01/26 19:15:23;;;;;;;;;;;2.50;99.90;;;;;;5138350;27;19912;-87
2022/01/26 19:17:54;;;;;;;;;;;2.40;99.90;;;;;;5135758;27;19914;-86
2022/01/26 19:20:37;;;;;;;;;;;2.40;99.90;;;;;;5097685;28;19925;-89
2022/01/26 19:26:05;;;;;;;;;;;2.50;99.90;;;;;;4661006;30;19980;-87
2022/01/26 19:43:17;;;;;;;;;;;2.50;99.90;;;;;;4977394;28;19927;-83
2022/01/26 19:45:33;;;;;;;;;;;2.50;99.90;;;;;;4793274;29;19938;-82
2022/01/26 19:55:51;;;;;;;;;;;2.60;99.90;;;;;;5181832;27;19930;-80
2022/01/26 20:01:14;;;;;;;;;;;2.60;99.90;;;;;;4900548;24;19944;-80
2022/01/26 20:03:41;;;;;;;;;;;2.60;99.90;;;;;;4789806;29;19929;-85
2022/01/26 20:06:11;;;;;;;;;;;2.70;99.90;;;;;;4756839;30;19968;-83
2022/01/26 20:08:42;;;;;;;;;;;2.70;99.90;;;;;;4652063;30;19949;-84
2022/01/26 20:11:14;;;;;;;;;;;2.70;99.90;;;;;;4403792;31;19940;-83
2022/01/26 20:18:04;;;;;;;;;;;2.70;99.90;;;;;;5165398;27;19926;-82
2022/01/26 20:20:31;;;;;;;;;;;2.80;99.90;;;;;;5116592;27;19930;-81
2022/01/26 20:22:57;;;;;;;;;;;2.80;99.90;;;;;;5071951;28;19932;-84
2022/01/26 20:25:24;;;;;;;;;;;2.80;99.90;;;;;;5022207;28;19926;-81
2022/01/26 20:27:51;;;;;;;;;;;2.80;99.90;;;;;;4997105;28;19946;-80
2022/01/26 20:30:20;;;;;;;;;;;2.80;99.90;;;;;;4841283;29;19989;-82
2022/01/26 20:32:47;;;;;;;;;;;2.80;99.90;;;;;;4671924;29;19940;-85
2022/01/26 20:40:21;;;;;;;;;;;2.80;99.90;;;;;;5174037;27;19925;-82
2022/01/26 20:42:47;;;;;;;;;;;2.90;99.90;;;;;;5134294;27;19923;-83
2022/01/26 20:45:20;;;;;;;;;;;2.90;99.90;;;;;;5109580;28;19935;-84
2022/01/26 20:47:47;;;;;;;;;;;2.90;99.90;;;;;;5094159;28;19930;-83
2022/01/26 20:50:14;;;;;;;;;;;2.90;99.90;;;;;;5079537;28;19924;-87
2022/01/26 20:52:42;;;;;;;;;;;2.90;99.90;;;;;;5068257;28;19926;-82
2022/01/26 20:55:09;;;;;;;;;;;2.90;99.90;;;;;;4912883;28;19940;-81
2022/01/26 20:57:37;;;;;;;;;;;3.00;99.90;;;;;;4693920;30;19941;-83
2022/01/26 21:05:10;;;;;;;;;;;2.90;99.90;;;;;;5179465;27;19925;-84
2022/01/26 21:07:37;;;;;;;;;;;2.90;99.90;;;;;;5115943;27;19954;-84
2022/01/26 21:10:08;;;;;;;;;;;2.90;99.90;;;;;;5085923;28;19924;-83
2022/01/26 21:12:35;;;;;;;;;;;2.90;99.90;;;;;;5044126;28;19926;-85
2022/01/26 21:15:02;;;;;;;;;;;2.90;99.90;;;;;;4880165;29;19939;-80
2022/01/26 21:17:29;;;;;;;;;;;2.90;99.90;;;;;;4731745;29;19939;-84
2022/01/26 21:19:55;;;;;;;;;;;2.90;99.90;;;;;;4522892;31;19943;-83
2022/01/26 21:27:21;;;;;;;;;;;2.90;99.90;;;;;;5175057;27;19941;-83
2022/01/26 21:29:48;;;;;;;;;;;3.00;99.90;;;;;;5148498;27;19984;-82
2022/01/26 21:32:15;;;;;;;;;;;3.00;99.90;;;;;;5139074;27;19931;-82
2022/01/26 21:34:42;;;;;;;;;;;3.00;99.90;;;;;;5129100;28;19923;-80
2022/01/26 21:37:08;;;;;;;;;;;3.00;99.90;;;;;;5020912;28;19927;-81
2022/01/26 21:39:35;;;;;;;;;;;3.00;99.90;;;;;;4885859;29;19930;-82
2022/01/26 21:42:03;;;;;;;;;;;3.00;99.90;;;;;;4615550;30;19936;-80
2022/01/26 21:49:33;;;;;;;;;;;3.00;99.90;;;;;;5183454;27;19925;-79
2022/01/26 21:52:00;;;;;;;;;;;3.00;99.90;;;;;;5119125;27;19924;-80
2022/01/26 21:54:26;;;;;;;;;;;3.00;99.90;;;;;;5111662;28;19942;-82
2022/01/26 21:56:53;;;;;;;;;;;3.10;99.90;;;;;;5110135;28;19928;-81
2022/01/26 21:59:20;;;;;;;;;;;3.10;99.90;;;;;;5003652;28;19938;-79
2022/01/26 22:01:46;;;;;;;;;;;3.00;99.90;;;;;;4845649;29;19930;-80
2022/01/26 22:04:13;;;;;;;;;;;3.00;99.90;;;;;;4677888;30;19940;-83
2022/01/26 22:13:45;;;;;;;;;;;3.10;99.90;;;;;;5174101;27;19925;-84
2022/01/26 22:16:12;;;;;;;;;;;3.00;99.90;;;;;;5137662;27;19923;-82
2022/01/26 22:18:38;;;;;;;;;;;3.10;99.90;;;;;;5118928;27;19967;-83
2022/01/26 22:21:05;;;;;;;;;;;3.00;99.90;;;;;;5104804;28;19931;-83
2022/01/26 22:23:32;;;;;;;;;;;3.00;99.90;;;;;;5014164;28;19927;-84
2022/01/26 22:25:59;;;;;;;;;;;3.00;99.90;;;;;;4817619;29;19931;-82
2022/01/26 22:28:28;;;;;;;;;;;3.10;99.90;;;;;;4659727;30;19933;-85
2022/01/26 22:33:33;;;;;;;;;;;3.10;99.90;;;;;;5174061;27;19930;-82
2022/01/26 22:36:02;;;;;;;;;;;3.10;99.90;;;;;;5118808;27;19935;-84
2022/01/26 22:38:29;;;;;;;;;;;3.10;99.90;;;;;;5102286;28;19923;-83
2022/01/26 22:40:56;;;;;;;;;;;3.10;99.90;;;;;;5108669;28;19924;-85
2022/01/26 22:43:22;;;;;;;;;;;3.10;99.90;;;;;;5029048;28;19942;-82
2022/01/26 22:45:49;;;;;;;;;;;3.10;99.90;;;;;;4926008;28;19934;-86
2022/01/26 22:48:20;;;;;;;;;;;3.10;99.90;;;;;;4749950;29;19932;-84
2022/01/26 22:55:53;;;;;;;;;;;3.10;99.90;;;;;;5174072;27;19926;-84
2022/01/26 22:58:20;;;;;;;;;;;3.10;99.90;;;;;;5133915;27;19923;-82
2022/01/26 23:01:24;;;;;;;;;;;3.10;99.90;;;;;;5114925;27;19930;-85
2022/01/26 23:03:50;;;;;;;;;;;3.10;99.90;;;;;;5026821;28;19926;-84
2022/01/26 23:06:22;;;;;;;;;;;3.10;99.90;;;;;;4966461;28;19926;-84
2022/01/26 23:08:49;;;;;;;;;;;3.10;99.90;;;;;;4842015;29;19930;-84
2022/01/26 23:13:56;;;;;;;;;;;3.10;99.90;;;;;;5190592;27;19925;-83
2022/01/26 23:16:23;;;;;;;;;;;3.10;99.90;;;;;;5139431;27;19923;-80
2022/01/26 23:18:51;;;;;;;;;;;3.10;99.90;;;;;;5122589;28;19939;-82
2022/01/26 23:21:18;;;;;;;;;;;3.20;99.90;;;;;;5085945;28;19935;-82
2022/01/26 23:23:45;;;;;;;;;;;3.10;99.90;;;;;;4960092;28;19932;-86
2022/01/26 23:26:23;;;;;;;;;;;3.10;99.90;;;;;;4856431;29;19952;-83
2022/01/26 23:29:02;;;;;;;;;;;3.20;99.90;;;;;;4712931;30;21509;-81
2022/01/26 23:34:50;;;;;;;;;;;3.20;99.90;;;;;;5182191;27;19926;-83
2022/01/26 23:37:47;;;;;;;;;;;3.20;99.90;;;;;;5116450;27;19931;-83
2022/01/26 23:40:43;;;;;;;;;;;3.30;99.90;;;;;;5108297;28;19925;-82
2022/01/26 23:43:54;;;;;;;;;;;3.30;99.90;;;;;;5013167;28;19926;-82
2022/01/26 23:57:30;;;;;;;;;;;3.20;99.90;;;;;;5181409;27;19926;-85
